createdAt,value
2023-03-01T00:00:50.040Z,64.43
2023-03-01T00:05:52.127Z,66.04
2023-03-01T00:11:16.063Z,65.72
2023-03-01T00:16:24.858Z,65.82
2023-03-01T00:21:28.053Z,65.39
2023-03-01T00:26:30.499Z,65.12
2023-03-01T00:31:34.172Z,65.32
2023-03-01T00:36:38.304Z,65.08
2023-03-01T00:41:41.465Z,64.89
2023-03-01T00:46:43.750Z,65.52
2023-03-01T00:51:45.920Z,65.22
2023-03-01T00:56:48.162Z,65.40
2023-03-01T01:01:50.698Z,65.56
2023-03-01T01:06:52.896Z,65.55
2023-03-01T01:11:54.988Z,65.71
2023-03-01T01:16:57.620Z,65.18
2023-03-01T01:21:59.892Z,65.36
2023-03-01T01:27:02.014Z,65.80
2023-03-01T01:32:04.247Z,65.93
2023-03-01T01:37:09.120Z,66.31
2023-03-01T01:42:20.407Z,66.38
2023-03-01T01:47:24.625Z,65.97
2023-03-01T01:52:33.073Z,65.47
2023-03-01T01:57:57.886Z,65.60
2023-03-01T02:03:05.238Z,65.56
2023-03-01T02:08:09.723Z,65.15
2023-03-01T02:13:12.813Z,65.15
2023-03-01T02:18:18.780Z,64.67
2023-03-01T02:23:21.458Z,64.65
2023-03-01T02:28:35.009Z,64.95
2023-03-01T02:33:40.412Z,65.13
2023-03-01T02:38:44.066Z,65.28
2023-03-01T02:43:46.830Z,65.04
2023-03-01T02:48:59.871Z,64.73
2023-03-01T02:54:10.693Z,64.70
2023-03-01T02:59:13.707Z,64.76
2023-03-01T03:04:19.531Z,64.67
2023-03-01T03:09:21.873Z,64.68
2023-03-01T03:14:24.888Z,64.44
2023-03-01T03:19:27.205Z,64.44
2023-03-01T03:24:30.073Z,64.41
2023-03-01T03:29:32.447Z,64.60
2023-03-01T03:34:34.679Z,64.54
2023-03-01T03:39:36.838Z,64.18
2023-03-01T03:44:39.073Z,64.64
2023-03-01T03:49:41.229Z,64.76
2023-03-01T03:54:43.424Z,64.64
2023-03-01T03:59:45.508Z,65.33
2023-03-01T04:04:47.617Z,65.14
2023-03-01T04:09:49.858Z,64.54
2023-03-01T04:14:52.199Z,64.36
2023-03-01T04:19:54.374Z,64.80
2023-03-01T04:24:56.615Z,65.73
2023-03-01T04:29:58.712Z,65.99
2023-03-01T04:35:01.638Z,66.35
2023-03-01T04:40:17.518Z,65.92
2023-03-01T04:45:20.150Z,65.51
2023-03-01T04:50:23.013Z,65.10
2023-03-01T04:55:27.155Z,64.70
2023-03-01T05:00:29.370Z,64.73
2023-03-01T05:05:38.001Z,64.96
2023-03-01T05:10:40.275Z,64.59
2023-03-01T05:15:42.579Z,65.11
2023-03-01T05:20:46.053Z,64.72
2023-03-01T05:25:48.198Z,65.11
2023-03-01T05:30:53.052Z,65.13
2023-03-01T05:35:55.542Z,64.75
2023-03-01T05:40:57.747Z,64.94
2023-03-01T05:46:01.240Z,64.79
2023-03-01T05:51:03.520Z,65.34
2023-03-01T05:56:06.004Z,65.43
2023-03-01T06:01:13.287Z,65.11
2023-03-01T06:06:15.432Z,64.90
2023-03-01T06:11:17.863Z,64.94
2023-03-01T06:16:20.093Z,64.86
2023-03-01T06:21:22.245Z,65.53
2023-03-01T06:26:24.426Z,65.30
2023-03-01T06:31:26.622Z,64.92
2023-03-01T06:36:29.066Z,64.45
2023-03-01T06:41:31.348Z,64.65
2023-03-01T06:46:33.902Z,64.77
2023-03-01T06:51:39.234Z,64.81
2023-03-01T06:56:41.404Z,64.22
2023-03-01T07:01:43.871Z,64.70
2023-03-01T07:06:45.951Z,64.61
2023-03-01T07:11:48.392Z,65.18
2023-03-01T07:16:50.569Z,65.64
2023-03-01T07:21:52.788Z,65.95
2023-03-01T07:26:55.076Z,65.97
2023-03-01T07:31:57.252Z,65.67
2023-03-01T07:36:59.404Z,65.69
2023-03-01T07:42:01.507Z,65.56
2023-03-01T07:47:05.545Z,65.99
2023-03-01T07:52:07.704Z,67.46
2023-03-01T07:57:09.878Z,66.79
2023-03-01T08:02:12.801Z,65.96
2023-03-01T08:07:15.120Z,65.35
2023-03-01T08:12:20.126Z,64.56
2023-03-01T08:17:22.535Z,63.89
2023-03-01T08:22:24.882Z,63.19
2023-03-01T08:27:27.140Z,62.93
2023-03-01T08:32:29.417Z,61.46
2023-03-01T08:37:34.185Z,60.96
2023-03-01T08:42:36.425Z,60.49
2023-03-01T08:47:38.805Z,60.16
2023-03-01T08:52:41.066Z,60.16
2023-03-01T08:57:43.232Z,59.70
2023-03-01T09:02:45.467Z,59.21
2023-03-01T09:07:47.668Z,59.32
2023-03-01T09:12:49.861Z,59.59
2023-03-01T09:17:53.182Z,58.79
2023-03-01T09:22:55.479Z,58.22
2023-03-01T09:27:57.745Z,58.04
2023-03-01T09:32:59.948Z,57.33
2023-03-01T09:38:02.510Z,57.67
2023-03-01T09:43:17.219Z,57.12
2023-03-01T09:48:26.008Z,56.97
2023-03-01T09:53:36.562Z,56.72
2023-03-01T09:58:44.916Z,56.15
2023-03-01T10:04:05.700Z,55.92
2023-03-01T10:09:14.038Z,55.75
2023-03-01T10:14:37.000Z,55.27
2023-03-01T10:19:43.250Z,55.10
2023-03-01T10:24:47.955Z,54.62
2023-03-01T10:30:23.114Z,54.76
2023-03-01T10:35:29.084Z,53.85
2023-03-01T10:40:31.953Z,53.75
2023-03-01T10:45:40.327Z,54.04
2023-03-01T10:50:48.296Z,53.63
2023-03-01T10:55:59.958Z,53.11
2023-03-01T11:01:03.944Z,52.66
2023-03-01T11:06:22.198Z,52.23
2023-03-01T11:11:32.827Z,51.98
2023-03-01T11:16:38.815Z,52.19
2023-03-01T11:21:48.828Z,52.54
2023-03-01T11:26:55.986Z,52.33
2023-03-01T11:32:03.092Z,51.86
2023-03-01T11:37:27.615Z,51.50
2023-03-01T11:42:45.506Z,50.94
2023-03-01T11:48:01.304Z,50.93
2023-03-01T11:53:33.098Z,49.94
2023-03-01T11:58:49.320Z,51.24
2023-03-01T12:04:07.278Z,52.91
2023-03-01T12:09:34.177Z,52.60
2023-03-01T12:15:08.005Z,52.10
2023-03-01T12:20:37.554Z,51.99
2023-03-01T12:26:05.032Z,51.92
2023-03-01T12:31:35.509Z,52.20
2023-03-01T12:36:45.491Z,52.64
2023-03-01T12:42:13.896Z,53.01
2023-03-01T12:47:50.972Z,52.65
2023-03-01T12:52:56.995Z,53.65
2023-03-01T12:58:01.886Z,54.45
2023-03-01T13:03:15.734Z,54.29
2023-03-01T13:08:43.944Z,54.09
2023-03-01T13:13:47.922Z,54.33
2023-03-01T13:18:50.189Z,54.45
2023-03-01T13:23:52.496Z,54.28
2023-03-01T13:28:57.299Z,53.61
2023-03-01T13:34:08.629Z,53.65
2023-03-01T13:39:34.528Z,54.04
2023-03-01T13:44:40.107Z,54.50
2023-03-01T13:49:53.330Z,53.78
2023-03-01T13:54:57.151Z,53.47
2023-03-01T13:59:59.576Z,53.37
2023-03-01T14:05:03.138Z,52.76
2023-03-01T14:10:07.434Z,52.90
2023-03-01T14:15:28.847Z,51.96
2023-03-01T14:20:36.801Z,52.53
2023-03-01T14:25:40.265Z,52.39
2023-03-01T14:30:51.081Z,52.98
2023-03-01T14:35:54.549Z,53.00
2023-03-01T14:41:00.739Z,53.08
2023-03-01T14:46:03.060Z,53.59
2023-03-01T14:51:07.238Z,53.87
2023-03-01T14:56:16.515Z,55.00
2023-03-01T15:01:21.222Z,54.90
2023-03-01T15:06:25.081Z,55.62
2023-03-01T15:11:32.875Z,55.48
2023-03-01T15:16:40.461Z,56.05
2023-03-01T15:21:48.329Z,56.29
2023-03-01T15:26:58.905Z,56.19
2023-03-01T15:32:26.198Z,55.94
2023-03-01T15:37:49.897Z,56.07
2023-03-01T15:42:53.028Z,56.30
2023-03-01T15:48:03.344Z,56.88
2023-03-01T15:53:08.214Z,57.21
2023-03-01T15:58:14.738Z,56.53
2023-03-01T16:03:22.753Z,56.80
2023-03-01T16:08:25.056Z,56.92
2023-03-01T16:13:29.079Z,57.88
2023-03-01T16:18:31.605Z,57.96
2023-03-01T16:23:34.265Z,57.64
2023-03-01T16:28:36.437Z,58.35
2023-03-01T16:33:39.298Z,59.48
2023-03-01T16:38:41.545Z,60.82
2023-03-01T16:43:44.210Z,61.04
2023-03-01T16:48:48.387Z,60.37
2023-03-01T16:53:52.193Z,59.92
2023-03-01T16:58:54.892Z,59.81
2023-03-01T17:03:57.083Z,60.38
2023-03-01T17:09:00.381Z,60.43
2023-03-01T17:14:02.563Z,60.00
2023-03-01T17:19:04.729Z,60.59
2023-03-01T17:24:07.128Z,60.32
2023-03-01T17:29:09.429Z,60.39
2023-03-01T17:34:11.591Z,60.19
2023-03-01T17:39:13.979Z,59.96
2023-03-01T17:44:16.177Z,59.92
2023-03-01T17:49:18.670Z,60.15
2023-03-01T17:54:20.947Z,60.06
2023-03-01T17:59:23.187Z,60.11
2023-03-01T18:04:25.456Z,60.33
2023-03-01T18:09:28.687Z,60.61
2023-03-01T18:14:34.303Z,60.74
2023-03-01T18:19:36.465Z,60.86
2023-03-01T18:24:39.577Z,61.10
2023-03-01T18:29:41.749Z,61.36
2023-03-01T18:34:43.877Z,61.38
2023-03-01T18:39:46.230Z,61.37
2023-03-01T18:44:49.381Z,61.49
2023-03-01T18:49:51.625Z,61.90
2023-03-01T18:54:53.821Z,61.45
2023-03-01T18:59:56.005Z,61.44
2023-03-01T19:04:58.279Z,61.75
2023-03-01T19:10:00.552Z,61.46
2023-03-01T19:15:02.856Z,61.77
2023-03-01T19:20:06.085Z,61.15
2023-03-01T19:25:08.796Z,61.58
2023-03-01T19:30:11.689Z,61.61
2023-03-01T19:35:13.954Z,61.92
2023-03-01T19:40:16.282Z,61.75
2023-03-01T19:45:25.219Z,61.76
2023-03-01T19:50:34.177Z,61.79
2023-03-01T19:55:38.082Z,61.20
2023-03-01T20:00:46.042Z,61.42
2023-03-01T20:05:48.510Z,61.39
2023-03-01T20:10:51.261Z,61.61
2023-03-01T20:15:55.782Z,61.45
2023-03-01T20:20:59.572Z,61.67
2023-03-01T20:26:05.004Z,61.67
2023-03-01T20:31:10.089Z,61.56
2023-03-01T20:36:12.839Z,61.56
2023-03-01T20:41:15.145Z,61.50
2023-03-01T20:46:17.287Z,62.13
2023-03-01T20:51:20.205Z,62.18
2023-03-01T20:56:23.275Z,62.03
2023-03-01T21:01:25.915Z,62.22
2023-03-01T21:06:28.482Z,62.59
2023-03-01T21:11:30.795Z,62.86
2023-03-01T21:16:34.265Z,63.35
2023-03-01T21:21:37.345Z,63.48
2023-03-01T21:26:39.834Z,63.24
2023-03-01T21:31:42.058Z,64.81
2023-03-01T21:36:44.158Z,65.47
2023-03-01T21:41:46.621Z,64.81
2023-03-01T21:46:50.092Z,65.32
2023-03-01T21:51:52.636Z,66.07
2023-03-01T21:56:54.856Z,66.72
2023-03-01T22:01:56.985Z,67.51
2023-03-01T22:06:59.172Z,66.89
2023-03-01T22:12:04.340Z,66.61
2023-03-01T22:17:06.819Z,66.71
2023-03-01T22:22:09.180Z,66.97
2023-03-01T22:27:11.341Z,66.89
2023-03-01T22:32:13.616Z,66.65
2023-03-01T22:37:15.934Z,66.88
2023-03-01T22:42:19.085Z,66.64
2023-03-01T22:47:21.243Z,67.05
2023-03-01T22:52:23.833Z,67.34
2023-03-01T22:57:25.917Z,67.37
2023-03-01T23:02:28.844Z,67.72
2023-03-01T23:07:31.225Z,67.16
2023-03-01T23:12:33.423Z,67.51
2023-03-01T23:17:36.014Z,67.77
2023-03-01T23:22:38.617Z,67.43
2023-03-01T23:27:40.894Z,66.91
2023-03-01T23:32:43.100Z,66.67
2023-03-01T23:37:45.976Z,66.71
2023-03-01T23:42:48.077Z,66.30
2023-03-01T23:47:50.184Z,66.42
2023-03-01T23:52:52.323Z,66.08
2023-03-01T23:57:54.594Z,66.28
